Flood From: 18-02-2018 16:00 Until: 19-02-2018 16:00 warning for: Flood Level: Yellow info button

Although rather usual in this region, locally or potentially dangerous phenomena are expected. (such as local winds, summer thunderstorms, rising streams or high waves) Be aware and pay attention to the latest weather updates, especially if you carry out activities exposed to weather or close to a stream or shoreline. 


Meteo18 Weather Cam more information Meteo18 Weather Cam


Thunder radar more information blitzortung!


Rain radar more information rain snow radar


Visit our other weather sites:

Template documentation
and downloads

And another site



Weather Underground History page Text

Daily Summary for August 9, 2017 Units:  English    Metric   Both
« Previous Day
Next Day »
Daily Weekly Monthly Yearly Custom
  High: Low: Average:
Temperature: TemperatureC °F 12.2 °F 14.6 °F
Dew Point: DewpointC °F 9.1 °F 11.6 °F
Humidity: Humidity % 64 % 82 %
Wind Speed: WindSpeedKMH mph 0.0 mph 4.3 mph
Wind Gust: WindSpeedGustKMH mph - -
Wind:- - SW
Pressure: PressurehPa in 1016.5 in -
Precipitation: 7.4 in    
Historical Graphs
 
 
Tabular Data for August 9, 2017
Time Temperature Dew Point Pressure Wind Wind Speed Wind Gust Humidity Rainfall Rate (Hourly)
TemperatureC °F DewpointC °F PressurehPa in Calm     Humidity % HourlyPrecipMM in
00:02 14.8 °F 11.6 °F 1017.5 in WSW 4.8 mph 8.0 mph 81 % 0.0 in
00:07 14.8 °F 11.6 °F 1017.5 in WSW 1.6 mph 8.0 mph 81 % 0.0 in
00:12 14.9 °F 11.7 °F 1017.5 in WSW 8.0 mph 8.0 mph 81 % 0.0 in
00:17 14.9 °F 11.7 °F 1017.5 in West 3.2 mph 8.0 mph 81 % 0.0 in
00:22 14.9 °F 11.9 °F 1017.5 in West 4.8 mph 9.7 mph 82 % 0.0 in
00:32 14.8 °F 11.8 °F 1017.5 in Calm   9.7 mph 82 % 0.0 in
00:42 14.7 °F 11.7 °F 1017.5 in WSW 3.2 mph 8.0 mph 82 % 0.0 in
00:47 14.7 °F 11.7 °F 1017.5 in WSW 1.6 mph 6.4 mph 82 % 0.0 in
00:52 14.6 °F 11.6 °F 1017.5 in SW 3.2 mph 6.4 mph 82 % 0.0 in
00:57 14.6 °F 11.6 °F 1017.5 in SW 3.2 mph 6.4 mph 82 % 0.0 in
01:02 14.5 °F 11.6 °F 1017.5 in WSW 1.6 mph 4.8 mph 83 % 0.0 in
01:07 14.4 °F 11.5 °F 1017.5 in Calm   6.4 mph 83 % 0.0 in
01:12 14.4 °F 11.7 °F 1017.5 in WSW 1.6 mph 6.4 mph 84 % 0.0 in
01:17 14.3 °F 11.6 °F 1017.5 in SW 3.2 mph 6.4 mph 84 % 0.0 in
01:22 14.4 °F 11.7 °F 1017.5 in WSW 3.2 mph 6.4 mph 84 % 0.0 in
01:27 14.4 °F 11.7 °F 1017.5 in WSW 1.6 mph 6.4 mph 84 % 0.0 in
01:32 14.4 °F 11.9 °F 1017.5 in WSW 1.6 mph 6.4 mph 85 % 0.0 in
01:42 14.2 °F 11.9 °F 1017.5 in Calm   4.8 mph 86 % 0.0 in
01:52 13.8 °F 11.8 °F 1017.5 in SW 3.2 mph 3.2 mph 88 % 0.0 in
01:57 13.7 °F 11.7 °F 1017.5 in SW 1.6 mph 3.2 mph 88 % 0.0 in
02:02 13.8 °F 11.8 °F 1017.5 in Calm   3.2 mph 88 % 0.0 in
02:07 13.8 °F 12.0 °F 1017.5 in Calm   3.2 mph 89 % 0.0 in
02:12 13.8 °F 11.8 °F 1017.5 in Calm   3.2 mph 88 % 0.0 in
02:17 13.7 °F 11.9 °F 1017.5 in Calm   1.6 mph 89 % 0.0 in
02:22 13.7 °F 11.9 °F 1017.5 in Calm   1.6 mph 89 % 0.0 in
02:32 13.7 °F 12.1 °F 1017.5 in Calm   3.2 mph 90 % 0.0 in
02:37 13.7 °F 12.1 °F 1017.2 in Calm   3.2 mph 90 % 0.0 in
02:42 13.6 °F 12.0 °F 1017.2 in SSE 1.6 mph 3.2 mph 90 % 0.0 in
02:47 13.6 °F 12.2 °F 1017.2 in Calm   1.6 mph 91 % 0.0 in
02:52 13.6 °F 12.2 °F 1017.2 in SE 1.6 mph 1.6 mph 91 % 0.0 in
02:57 13.6 °F 12.2 °F 1017.2 in Calm   1.6 mph 91 % 0.0 in
03:02 13.4 °F 12.0 °F 1017.2 in Calm   3.2 mph 91 % 0.0 in
03:07 13.3 °F 12.0 °F 1017.2 in Calm   3.2 mph 92 % 0.0 in
03:12 13.2 °F 11.9 °F 1017.2 in Calm   3.2 mph 92 % 0.0 in
03:17 13.1 °F 12.0 °F 1017.2 in Calm     93 % 0.0 in
03:22 13.2 °F 12.3 °F 1017.2 in Calm     94 % 0.0 in
03:27 13.3 °F 12.4 °F 1017.2 in Calm     94 % 0.0 in
03:32 13.3 °F 12.2 °F 1017.2 in SW 4.8 mph 8.0 mph 93 % 0.0 in
03:37 13.4 °F 12.3 °F 1017.2 in SW 3.2 mph 8.0 mph 93 % 0.0 in
03:42 13.4 °F 12.3 °F 1017.2 in South 1.6 mph 8.0 mph 93 % 0.0 in
03:47 13.2 °F 11.9 °F 1017.2 in Calm   8.0 mph 92 % 0.0 in
03:52 13.1 °F 11.8 °F 1017.2 in Calm   8.0 mph 92 % 0.0 in
03:57 12.9 °F 11.6 °F 1017.2 in Calm   3.2 mph 92 % 0.0 in
04:02 12.8 °F 11.7 °F 1017.2 in Calm   3.2 mph 93 % 0.0 in
04:07 12.7 °F 11.6 °F 1017.2 in Calm   3.2 mph 93 % 0.0 in
04:12 12.7 °F 11.6 °F 1017.2 in Calm   1.6 mph 93 % 0.0 in
04:17 12.6 °F 11.5 °F 1017.2 in Calm     93 % 0.0 in
04:22 12.6 °F 11.5 °F 1017.2 in SW 3.2 mph   93 % 0.0 in
04:27 12.6 °F 11.7 °F 1017.2 in SSW 3.2 mph 4.8 mph 94 % 0.0 in
04:32 12.6 °F 11.7 °F 1017.2 in SSW 4.8 mph 4.8 mph 94 % 0.0 in
04:37 12.7 °F 11.8 °F 1017.2 in SSW 6.4 mph 6.4 mph 94 % 0.0 in
04:42 12.7 °F 11.8 °F 1017.2 in SSW 1.6 mph 8.0 mph 94 % 0.0 in
04:47 12.6 °F 11.5 °F 1017.2 in SW 4.8 mph 8.0 mph 93 % 0.0 in
04:52 12.6 °F 11.5 °F 1017.2 in SSW 1.6 mph 8.0 mph 93 % 0.0 in
04:57 12.7 °F 11.6 °F 1017.2 in WSW 1.6 mph 9.7 mph 93 % 0.0 in
05:02 12.7 °F 11.4 °F 1017.2 in WSW 4.8 mph 9.7 mph 92 % 0.0 in
05:07 12.8 °F 11.5 °F 1016.8 in WSW 6.4 mph 12.9 mph 92 % 0.0 in
05:17 12.8 °F 11.4 °F 1016.8 in SW 6.4 mph 14.5 mph 91 % 0.0 in
05:22 12.7 °F 11.3 °F 1016.8 in WSW 9.7 mph 14.5 mph 91 % 0.0 in
05:32 12.7 °F 11.3 °F 1016.8 in WSW 1.6 mph 12.9 mph 91 % 0.0 in
05:42 12.6 °F 11.2 °F 1016.5 in WSW 4.8 mph 9.7 mph 91 % 0.0 in
05:47 12.6 °F 11.2 °F 1016.5 in WSW 1.6 mph 9.7 mph 91 % 0.0 in
05:52 12.6 °F 11.2 °F 1016.8 in SW 1.6 mph 9.7 mph 91 % 0.0 in
06:02 12.6 °F 11.2 °F 1016.8 in SW 1.6 mph 6.4 mph 91 % 0.0 in
06:12 12.5 °F 11.1 °F 1016.8 in SW 6.4 mph 8.0 mph 91 % 0.0 in
06:17 12.4 °F 11.0 °F 1016.8 in SSW 4.8 mph 9.7 mph 91 % 0.0 in
06:22 12.4 °F 11.0 °F 1016.8 in SW 4.8 mph 9.7 mph 91 % 0.0 in
06:32 12.4 °F 11.0 °F 1016.8 in SSW 3.2 mph 11.3 mph 91 % 0.0 in
06:42 12.3 °F 10.9 °F 1016.5 in Calm   9.7 mph 91 % 0.0 in
06:52 12.3 °F 11.0 °F 1016.8 in SSW 1.6 mph 4.8 mph 92 % 0.0 in
07:02 12.3 °F 11.0 °F 1016.8 in South 1.6 mph 6.4 mph 92 % 0.0 in
07:12 12.3 °F 11.0 °F 1016.8 in Calm   6.4 mph 92 % 0.0 in
07:17 12.3 °F 11.0 °F 1016.8 in Calm   6.4 mph 92 % 0.0 in
07:22 12.2 °F 10.9 °F 1016.8 in Calm   6.4 mph 92 % 0.0 in
07:32 12.2 °F 11.1 °F 1016.8 in Calm   3.2 mph 93 % 0.0 in
07:37 12.2 °F 11.1 °F 1016.8 in Calm   1.6 mph 93 % 0.0 in
07:42 12.3 °F 11.2 °F 1016.8 in Calm   1.6 mph 93 % 0.0 in
07:47 12.4 °F 11.3 °F 1016.8 in Calm     93 % 0.0 in
07:52 12.7 °F 11.6 °F 1016.8 in Calm     93 % 0.0 in
07:57 12.8 °F 11.7 °F 1016.8 in Calm   3.2 mph 93 % 0.0 in
08:02 12.9 °F 11.6 °F 1016.8 in Calm   3.2 mph 92 % 0.0 in
08:12 13.0 °F 11.7 °F 1016.8 in Calm   3.2 mph 92 % 0.0 in
08:17 13.1 °F 11.8 °F 1016.8 in Calm   3.2 mph 92 % 0.0 in
08:22 13.1 °F 11.8 °F 1016.8 in Calm   3.2 mph 92 % 0.0 in
08:32 13.2 °F 11.9 °F 1016.8 in Calm   3.2 mph 92 % 0.0 in
08:42 13.4 °F 12.0 °F 1016.8 in SW 1.6 mph 3.2 mph 91 % 0.0 in
08:52 13.5 °F 12.1 °F 1016.8 in SW 3.2 mph 8.0 mph 91 % 0.0 in
09:02 13.6 °F 12.2 °F 1016.8 in SSE 3.2 mph 8.0 mph 91 % 0.0 in
09:12 13.9 °F 12.3 °F 1016.8 in SSW 4.8 mph 8.0 mph 90 % 0.0 in
09:17 14.1 °F 12.5 °F 1016.8 in SSW 4.8 mph 6.4 mph 90 % 0.0 in
09:22 14.1 °F 12.3 °F 1016.8 in SSE 3.2 mph 8.0 mph 89 % 0.0 in
09:32 14.4 °F 12.4 °F 1017.2 in SSW 4.8 mph 8.0 mph 88 % 0.0 in
09:42 14.6 °F 12.5 °F 1017.2 in SW 4.8 mph 9.7 mph 87 % 0.0 in
09:47 14.6 °F 12.1 °F 1017.2 in SSW 4.8 mph 12.9 mph 85 % 0.0 in
09:52 14.7 °F 12.4 °F 1017.2 in SSW 3.2 mph 12.9 mph 86 % 0.0 in
09:57 14.8 °F 12.3 °F 1017.2 in SW 4.8 mph 12.9 mph 85 % 0.0 in
10:02 14.8 °F 12.3 °F 1016.8 in SSW 3.2 mph 12.9 mph 85 % 0.0 in
10:12 14.9 °F 12.2 °F 1017.2 in SSW 4.8 mph 16.1 mph 84 % 0.0 in
10:17 14.9 °F 12.2 °F 1017.2 in WSW 6.4 mph 19.3 mph 84 % 0.0 in
10:22 14.9 °F 12.2 °F 1017.2 in SW 11.3 mph 19.3 mph 84 % 0.0 in
10:32 14.9 °F 12.2 °F 1017.2 in SSW 8.0 mph 12.9 mph 84 % 0.0 in
10:42 14.9 °F 12.2 °F 1017.2 in South 8.0 mph 16.1 mph 84 % 0.0 in
10:47 14.8 °F 12.1 °F 1017.2 in South 4.8 mph 16.1 mph 84 % 0.0 in
10:52 14.8 °F 12.3 °F 1017.2 in SW 3.2 mph 16.1 mph 85 % 0.0 in
10:57 14.8 °F 12.3 °F 1017.2 in South 3.2 mph 14.5 mph 85 % 0.0 in
11:02 14.8 °F 12.1 °F 1017.2 in SSW 6.4 mph 14.5 mph 84 % 0.0 in
11:12 14.9 °F 12.2 °F 1017.2 in South 4.8 mph 11.3 mph 84 % 0.0 in
11:17 15.1 °F 12.6 °F 1017.2 in SSW 4.8 mph 11.3 mph 85 % 0.0 in
11:22 15.1 °F 12.2 °F 1017.2 in SW 6.4 mph 11.3 mph 83 % 0.0 in
11:27 15.1 °F 12.0 °F 1017.2 in SSW 9.7 mph 14.5 mph 82 % 0.0 in
11:32 15.2 °F 12.0 °F 1017.2 in SW 8.0 mph 14.5 mph 81 % 0.0 in
11:37 15.2 °F 12.0 °F 1017.2 in SW 6.4 mph 17.7 mph 81 % 0.0 in
11:42 15.3 °F 12.1 °F 1017.2 in SW 9.7 mph 17.7 mph 81 % 0.0 in
11:47 15.3 °F 12.1 °F 1017.2 in ESE 4.8 mph 17.7 mph 81 % 0.0 in
11:52 15.4 °F 12.0 °F 1017.2 in WSW 9.7 mph 17.7 mph 80 % 0.0 in
11:57 15.6 °F 12.4 °F 1017.2 in SW 3.2 mph 14.5 mph 81 % 0.0 in
12:02 15.7 °F 12.3 °F 1017.2 in SW 6.4 mph 14.5 mph 80 % 0.0 in
12:12 15.8 °F 12.5 °F 1017.2 in South 4.8 mph 12.9 mph 81 % 0.0 in
12:17 15.9 °F 12.3 °F 1017.2 in SW 6.4 mph 12.9 mph 79 % 0.0 in
12:22 15.9 °F 12.5 °F 1017.2 in SSW 8.0 mph 12.9 mph 80 % 0.0 in
12:32 16.0 °F 12.4 °F 1017.2 in SSW 8.0 mph 19.3 mph 79 % 0.0 in
12:42 16.0 °F 12.2 °F 1017.2 in WSW 12.9 mph 16.1 mph 78 % 0.0 in
12:47 16.0 °F 12.2 °F 1017.2 in South 8.0 mph 16.1 mph 78 % 0.0 in
12:52 16.0 °F 12.6 °F 1017.2 in SW 11.3 mph 16.1 mph 80 % 0.0 in
12:57 15.8 °F 12.5 °F 1017.2 in SSW 6.4 mph 16.1 mph 81 % 0.0 in
13:02 15.7 °F 12.4 °F 1017.2 in SW 8.0 mph 17.7 mph 81 % 0.0 in
13:07 15.7 °F 12.8 °F 1017.5 in SW 4.8 mph 17.7 mph 83 % 0.0 in
13:12 15.6 °F 12.7 °F 1017.5 in SW 1.6 mph 17.7 mph 83 % 0.0 in
13:17 15.6 °F 12.9 °F 1017.5 in SW 6.4 mph 14.5 mph 84 % 0.0 in
13:22 15.6 °F 12.9 °F 1017.5 in SSW 1.6 mph 11.3 mph 84 % 0.0 in
13:27 15.7 °F 13.2 °F 1017.5 in SSW 4.8 mph 11.3 mph 85 % 0.0 in
13:32 16.1 °F 13.6 °F 1017.2 in East 1.6 mph 11.3 mph 85 % 0.0 in
13:37 16.3 °F 13.6 °F 1017.2 in SSE 3.2 mph 11.3 mph 84 % 0.0 in
13:42 16.7 °F 13.2 °F 1017.2 in South 6.4 mph 11.3 mph 80 % 0.0 in
13:52 17.2 °F 12.3 °F 1017.2 in South 11.3 mph 11.3 mph 73 % 0.0 in
13:57 17.2 °F 12.3 °F 1017.2 in South 1.6 mph 16.1 mph 73 % 0.0 in
14:02 17.6 °F 12.7 °F 1017.2 in South 8.0 mph 16.1 mph 73 % 0.0 in
14:12 17.7 °F 12.2 °F 1017.2 in SW 9.7 mph 14.5 mph 70 % 0.0 in
14:17 17.6 °F 12.1 °F 1017.2 in SSW 12.9 mph 14.5 mph 70 % 0.0 in
14:22 17.1 °F 12.0 °F 1017.2 in South 3.2 mph 17.7 mph 72 % 0.0 in
14:27 16.8 °F 12.1 °F 1017.2 in SSE 6.4 mph 17.7 mph 74 % 0.0 in
14:32 16.1 °F 12.3 °F 1017.2 in SW 11.3 mph 17.7 mph 78 % 0.3 in
14:37 15.6 °F 12.4 °F 1017.5 in SW 9.7 mph 16.1 mph 81 % 0.3 in
14:42 15.3 °F 12.4 °F 1017.2 in WSW 3.2 mph 16.1 mph 83 % 0.5 in
14:52 15.2 °F 12.5 °F 1017.5 in SW 3.2 mph 16.1 mph 84 % 0.5 in
14:57 15.1 °F 12.2 °F 1017.5 in WSW 6.4 mph 11.3 mph 83 % 0.5 in
15:02 15.0 °F 12.5 °F 1017.5 in West 8.0 mph 11.3 mph 85 % 0.5 in
15:07 14.8 °F 12.7 °F 1017.5 in WSW 8.0 mph 11.3 mph 87 % 1.0 in
15:12 14.6 °F 12.6 °F 1017.5 in WSW 8.0 mph 12.9 mph 88 % 1.3 in
15:17 14.4 °F 12.6 °F 1017.5 in WSW 1.6 mph 12.9 mph 89 % 1.8 in
15:22 14.3 °F 12.7 °F 1017.5 in Calm   9.7 mph 90 % 4.1 in
15:27 14.6 °F 13.1 °F 1017.5 in Calm   8.0 mph 91 % 4.3 in
15:32 14.8 °F 13.5 °F 1017.5 in SSW 3.2 mph 3.2 mph 92 % 4.1 in
15:37 15.1 °F 13.6 °F 1017.5 in ESE 1.6 mph 3.2 mph 91 % 3.8 in
15:42 15.2 °F 13.7 °F 1017.5 in ESE 1.6 mph 6.4 mph 91 % 3.8 in
15:52 15.8 °F 14.5 °F 1017.2 in SE 1.6 mph 6.4 mph 92 % 3.8 in
15:57 16.2 °F 14.7 °F 1017.2 in Calm   4.8 mph 91 % 3.8 in
16:02 16.5 °F 15.0 °F 1017.2 in East 8.0 mph 8.0 mph 91 % 3.6 in
16:07 16.8 °F 14.6 °F 1017.2 in East 3.2 mph 8.0 mph 87 % 3.3 in
16:12 17.2 °F 15.0 °F 1016.8 in East 6.4 mph 12.9 mph 87 % 2.8 in
16:17 17.4 °F 14.5 °F 1016.8 in East 8.0 mph 12.9 mph 83 % 1.5 in
16:22 17.8 °F 15.4 °F 1016.8 in West 3.2 mph 12.9 mph 86 % 0.0 in
16:27 18.0 °F 15.1 °F 1016.8 in East 3.2 mph 12.9 mph 83 % 0.0 in
16:32 17.5 °F 14.2 °F 1016.8 in West 1.6 mph 12.9 mph 81 % 0.0 in
16:37 16.8 °F 12.3 °F 1017.8 in West 22.5 mph 22.5 mph 75 % 0.0 in
16:42 15.0 °F 11.8 °F 1017.8 in West 11.3 mph 25.7 mph 81 % 1.5 in
16:47 14.2 °F 11.9 °F 1017.5 in NW 3.2 mph 25.7 mph 86 % 2.3 in
16:52 14.1 °F 12.1 °F 1017.5 in NW 4.8 mph 25.7 mph 88 % 3.3 in
16:57 14.2 °F 12.1 °F 1017.5 in NW 8.0 mph 14.5 mph 87 % 3.3 in
17:02 14.3 °F 11.8 °F 1017.5 in WNW 3.2 mph 14.5 mph 85 % 3.3 in
17:07 14.7 °F 12.4 °F 1017.5 in NNW 6.4 mph 12.9 mph 86 % 3.3 in
17:12 14.7 °F 12.0 °F 1017.5 in NNW 1.6 mph 12.9 mph 84 % 3.3 in
17:17 14.8 °F 11.9 °F 1017.5 in WNW 4.8 mph 11.3 mph 83 % 3.3 in
17:22 15.2 °F 12.5 °F 1017.5 in North 6.4 mph 11.3 mph 84 % 3.3 in
17:27 15.4 °F 12.7 °F 1017.8 in Calm   8.0 mph 84 % 3.3 in
17:32 15.8 °F 12.9 °F 1017.8 in Calm   8.0 mph 83 % 3.3 in
17:37 16.1 °F 12.8 °F 1017.8 in Calm   8.0 mph 81 % 3.3 in
17:42 16.3 °F 13.0 °F 1017.8 in Calm   6.4 mph 81 % 1.5 in
17:47 16.6 °F 12.6 °F 1017.8 in WNW 3.2 mph 4.8 mph 77 % 0.3 in
17:52 16.8 °F 12.3 °F 1017.8 in WSW 3.2 mph 9.7 mph 75 % 0.0 in
17:57 16.9 °F 11.8 °F 1017.8 in WNW 9.7 mph 16.1 mph 72 % 0.0 in
18:02 17.1 °F 12.0 °F 1017.8 in WNW 8.0 mph 17.7 mph 72 % 0.0 in
18:07 17.2 °F 11.2 °F 1018.2 in SW 6.4 mph 19.3 mph 68 % 0.0 in
18:12 17.0 °F 11.1 °F 1018.2 in West 11.3 mph 22.5 mph 68 % 0.0 in
18:17 17.1 °F 11.4 °F 1018.2 in West 17.7 mph 22.5 mph 69 % 0.0 in
18:22 17.1 °F 11.1 °F 1018.2 in WNW 6.4 mph 22.5 mph 68 % 0.0 in
18:32 16.9 °F 11.0 °F 1018.2 in West 6.4 mph 19.3 mph 68 % 0.0 in
18:37 17.1 °F 10.9 °F 1017.8 in SW 8.0 mph 19.3 mph 67 % 0.0 in
18:42 17.2 °F 10.8 °F 1018.2 in WSW 3.2 mph 14.5 mph 66 % 0.0 in
18:47 17.1 °F 10.7 °F 1017.8 in West 4.8 mph 11.3 mph 66 % 0.0 in
18:52 17.3 °F 10.9 °F 1017.8 in SSW 1.6 mph 11.3 mph 66 % 0.0 in
18:57 17.3 °F 10.4 °F 1017.8 in West 6.4 mph 14.5 mph 64 % 0.0 in
19:02 17.2 °F 10.8 °F 1017.8 in SW 8.0 mph 17.7 mph 66 % 0.0 in
19:12 16.8 °F 10.4 °F 1017.8 in WSW 16.1 mph 16.1 mph 66 % 0.0 in
19:17 16.8 °F 10.2 °F 1017.8 in SSW 8.0 mph 20.9 mph 65 % 0.0 in
19:22 16.9 °F 10.3 °F 1018.2 in SW 11.3 mph 22.5 mph 65 % 0.0 in
19:27 16.9 °F 10.3 °F 1018.2 in SW 12.9 mph 22.5 mph 65 % 0.0 in
19:32 16.7 °F 10.1 °F 1018.2 in WSW 4.8 mph 22.5 mph 65 % 0.0 in
19:37 16.5 °F 9.9 °F 1018.2 in SSW 8.0 mph 19.3 mph 65 % 0.0 in
19:42 16.2 °F 9.8 °F 1018.2 in SW 8.0 mph 19.3 mph 66 % 0.0 in
19:47 16.1 °F 9.7 °F 1018.2 in SSW 4.8 mph 19.3 mph 66 % 0.0 in
19:52 15.9 °F 9.3 °F 1018.2 in SW 9.7 mph 17.7 mph 65 % 0.0 in
19:57 15.9 °F 9.1 °F 1018.2 in WSW 14.5 mph 17.7 mph 64 % 0.0 in
20:02 15.8 °F 9.2 °F 1018.2 in WSW 4.8 mph 17.7 mph 65 % 0.0 in
20:12 15.6 °F 9.3 °F 1018.2 in SW 8.0 mph 17.7 mph 66 % 0.0 in
20:17 15.6 °F 9.3 °F 1018.2 in WSW 8.0 mph 17.7 mph 66 % 0.0 in
20:22 15.5 °F 9.4 °F 1018.2 in SSW 3.2 mph 17.7 mph 67 % 0.0 in
20:27 15.5 °F 9.6 °F 1018.2 in WSW 6.4 mph 17.7 mph 68 % 0.0 in
20:32 15.4 °F 9.5 °F 1018.2 in WSW 3.2 mph 11.3 mph 68 % 0.0 in
20:42 15.6 °F 9.9 °F 1018.2 in SW 4.8 mph 12.9 mph 69 % 0.0 in
20:47 15.4 °F 10.0 °F 1018.5 in WSW 4.8 mph 12.9 mph 70 % 0.0 in
20:52 15.3 °F 10.1 °F 1018.5 in WSW 4.8 mph 12.9 mph 71 % 0.0 in
20:57 15.2 °F 10.2 °F 1018.5 in SW 4.8 mph 12.9 mph 72 % 0.0 in
21:02 15.1 °F 10.3 °F 1018.5 in WSW 8.0 mph 12.9 mph 73 % 0.0 in
21:12 14.9 °F 10.3 °F 1018.8 in SW 4.8 mph 11.3 mph 74 % 0.0 in
21:17 14.8 °F 10.4 °F 1018.8 in WSW 6.4 mph 11.3 mph 75 % 0.0 in
21:22 14.8 °F 10.4 °F 1018.8 in SW 4.8 mph 9.7 mph 75 % 0.0 in
21:32 14.6 °F 10.4 °F 1019.2 in SW 3.2 mph 8.0 mph 76 % 0.0 in
21:42 14.4 °F 10.4 °F 1019.5 in SSW 3.2 mph 11.3 mph 77 % 0.0 in
21:47 14.3 °F 10.3 °F 1019.5 in West 3.2 mph 11.3 mph 77 % 0.0 in
21:52 14.2 °F 10.2 °F 1019.5 in WSW 1.6 mph 11.3 mph 77 % 0.0 in
21:57 14.1 °F 10.3 °F 1019.5 in SSW 1.6 mph 9.7 mph 78 % 0.0 in
22:02 14.0 °F 10.2 °F 1019.5 in SSW 1.6 mph 6.4 mph 78 % 0.0 in
22:12 14.0 °F 10.2 °F 1019.9 in WSW 3.2 mph 8.0 mph 78 % 0.0 in
22:17 13.9 °F 10.1 °F 1019.9 in WSW 4.8 mph 8.0 mph 78 % 0.0 in
22:22 13.9 °F 10.3 °F 1019.9 in West 3.2 mph 8.0 mph 79 % 0.0 in
22:27 13.8 °F 10.2 °F 1019.9 in West 3.2 mph 6.4 mph 79 % 0.0 in
22:32 13.7 °F 10.1 °F 1020.2 in SW 4.8 mph 8.0 mph 79 % 0.0 in
22:37 13.6 °F 10.4 °F 1019.9 in WSW 4.8 mph 9.7 mph 81 % 0.0 in
22:42 13.4 °F 10.2 °F 1020.2 in SW 6.4 mph 11.3 mph 81 % 0.0 in
22:47 13.4 °F 10.2 °F 1020.2 in SW 9.7 mph 11.3 mph 81 % 0.0 in
22:52 13.3 °F 9.9 °F 1020.2 in WSW 4.8 mph 11.3 mph 80 % 0.0 in
22:57 13.3 °F 9.9 °F 1020.2 in WSW 4.8 mph 12.9 mph 80 % 0.0 in
23:07 13.3 °F 9.9 °F 1020.2 in SW 6.4 mph 12.9 mph 80 % 0.0 in
23:12 13.3 °F 9.7 °F 1020.2 in SW 6.4 mph 12.9 mph 79 % 0.0 in
23:17 13.3 °F 9.5 °F 1020.2 in WSW 4.8 mph 12.9 mph 78 % 0.0 in
23:22 13.2 °F 9.4 °F 1020.2 in WSW 9.7 mph 14.5 mph 78 % 0.0 in
23:27 13.1 °F 9.5 °F 1020.2 in WSW 6.4 mph 14.5 mph 79 % 0.0 in
23:32 13.0 °F 9.4 °F 1020.2 in WSW 8.0 mph 14.5 mph 79 % 0.0 in
23:37 12.9 °F 9.3 °F 1020.2 in WSW 3.2 mph 11.3 mph 79 % 0.0 in
23:42 12.8 °F 9.2 °F 1020.5 in Calm   9.7 mph 79 % 0.0 in
23:47 12.7 °F 9.3 °F 1020.5 in Calm   9.7 mph 80 % 0.0 in
23:52 12.6 °F 9.4 °F 1020.5 in SW 1.6 mph 6.4 mph 81 % 0.0 in
23:57 12.4 °F 9.4 °F 1020.5 in SW 4.8 mph 4.8 mph 82 % 0.0 in
Meteo18
Compliments of Weather Underground - 4 mb

Script developed by  Jim McMurry - jmcmurry@mwt.net Adapted for the template by  Wim van der Kuil - Leuven-Template.eu

You find our weather info also at:

European Weather Network

Weather Underground

Equipment we use:

Weather-station
Davis Vue

Weather-program
Meteobridge

Weather-server
Raspberry PI 2 B+

Provider
1 and 1

Davis Vue

Meteobridge

Raspberry PI 2 B+

1 and 1